createdAt,value
2019-04-12T00:00:26.022Z,0.00
2019-04-12T00:01:25.716Z,0.00
2019-04-12T00:02:37.603Z,0.00
2019-04-12T00:03:30.791Z,0.00
2019-04-12T00:04:48.678Z,0.00
2019-04-12T00:05:41.618Z,0.00
2019-04-12T00:06:48.894Z,0.00
2019-04-12T00:07:52.698Z,0.00
2019-04-12T00:09:05.088Z,0.00
2019-04-12T00:10:23.627Z,0.00
2019-04-12T00:11:10.836Z,0.00
2019-04-12T00:12:10.441Z,0.00
2019-04-12T00:13:18.223Z,0.00
2019-04-12T00:14:23.960Z,0.00
2019-04-12T00:15:31.854Z,0.00
2019-04-12T00:16:43.789Z,0.00
2019-04-12T00:17:47.227Z,0.00
2019-04-12T00:18:48.986Z,0.00
2019-04-12T00:20:00.863Z,0.00
2019-04-12T00:21:00.868Z,0.00
2019-04-12T00:22:02.108Z,0.00
2019-04-12T00:23:13.776Z,0.00
2019-04-12T00:24:17.333Z,0.00
2019-04-12T00:25:25.065Z,0.00
2019-04-12T00:26:24.773Z,0.00
2019-04-12T00:27:35.831Z,0.00
2019-04-12T00:28:32.658Z,0.00
2019-04-12T00:29:40.659Z,0.00
2019-04-12T00:30:51.122Z,0.00
2019-04-12T00:31:54.493Z,0.00
2019-04-12T00:33:06.585Z,0.00
2019-04-12T00:34:00.973Z,0.00
2019-04-12T00:35:13.353Z,0.00
2019-04-12T00:36:19.867Z,0.00
2019-04-12T00:37:18.696Z,0.00
2019-04-12T00:38:28.842Z,0.00
2019-04-12T00:39:39.288Z,0.00
2019-04-12T00:40:39.707Z,0.00
2019-04-12T00:41:42.988Z,0.00
2019-04-12T00:42:52.013Z,0.00
2019-04-12T00:43:55.805Z,0.00
2019-04-12T00:45:04.515Z,0.00
2019-04-12T00:46:06.230Z,0.00
2019-04-12T00:47:08.980Z,0.00
2019-04-12T00:48:12.734Z,0.00
2019-04-12T00:49:25.431Z,0.00
2019-04-12T00:50:26.472Z,0.00
2019-04-12T00:51:43.276Z,0.00
2019-04-12T00:52:43.056Z,0.00
2019-04-12T00:53:46.147Z,0.00
2019-04-12T00:54:51.279Z,0.00
2019-04-12T00:55:54.861Z,0.00
2019-04-12T00:56:56.814Z,0.00
2019-04-12T00:58:09.007Z,0.00
2019-04-12T00:59:17.241Z,0.00
2019-04-12T01:00:21.106Z,0.00
2019-04-12T01:01:19.216Z,0.00
2019-04-12T01:02:24.905Z,0.00
2019-04-12T01:03:33.514Z,0.00
2019-04-12T01:04:44.097Z,0.00
2019-04-12T01:05:41.514Z,0.00
2019-04-12T01:06:54.732Z,0.00
2019-04-12T01:07:59.552Z,0.00
2019-04-12T01:09:03.243Z,0.00
2019-04-12T01:10:12.673Z,0.00
2019-04-12T01:11:16.265Z,0.00
2019-04-12T01:12:21.389Z,0.00
2019-04-12T01:13:28.566Z,0.00
2019-04-12T01:14:35.535Z,0.00
2019-04-12T01:15:40.980Z,0.00
2019-04-12T01:16:47.120Z,0.00
2019-04-12T01:17:48.154Z,0.00
2019-04-12T01:18:50.924Z,0.00
2019-04-12T01:19:50.724Z,0.00
2019-04-12T01:21:00.975Z,0.00
2019-04-12T01:22:08.211Z,0.00
2019-04-12T01:23:18.497Z,0.00
2019-04-12T01:24:15.330Z,0.00
2019-04-12T01:25:33.769Z,0.00
2019-04-12T01:26:24.266Z,0.00
2019-04-12T01:27:36.649Z,0.00
2019-04-12T01:28:43.419Z,0.00
2019-04-12T01:29:51.410Z,0.00
2019-04-12T01:30:51.316Z,0.00
2019-04-12T01:31:54.494Z,0.00
2019-04-12T01:32:59.314Z,0.00
2019-04-12T01:34:13.145Z,0.00
2019-04-12T01:35:22.984Z,0.00
2019-04-12T01:36:19.815Z,0.00
2019-04-12T01:37:25.864Z,0.00
2019-04-12T01:38:27.099Z,0.00
2019-04-12T01:39:49.129Z,0.00
2019-04-12T01:40:43.906Z,0.00
2019-04-12T01:41:44.937Z,0.00
2019-04-12T01:42:58.771Z,0.00
2019-04-12T01:43:58.675Z,0.00
2019-04-12T01:45:00.729Z,0.00
2019-04-12T01:46:05.652Z,0.00
2019-04-12T01:47:17.436Z,0.00
2019-04-12T01:48:15.290Z,0.00
2019-04-12T01:49:22.568Z,0.00
2019-04-12T01:50:32.709Z,0.00
2019-04-12T01:51:33.435Z,0.00
2019-04-12T01:52:52.487Z,0.00
2019-04-12T01:53:45.942Z,0.00
2019-04-12T01:54:52.094Z,0.00
2019-04-12T01:55:59.064Z,0.00
2019-04-12T01:57:00.125Z,0.00
2019-04-12T01:58:11.976Z,0.00
2019-04-12T01:59:18.641Z,0.00
2019-04-12T02:00:24.591Z,0.00
2019-04-12T02:01:23.570Z,0.00
2019-04-12T02:02:27.988Z,0.00
2019-04-12T02:03:40.891Z,0.00
2019-04-12T02:04:38.643Z,0.00
2019-04-12T02:05:50.435Z,0.00
2019-04-12T02:06:54.840Z,0.00
2019-04-12T02:08:06.008Z,0.00
2019-04-12T02:09:07.242Z,0.00
2019-04-12T02:10:14.313Z,0.00
2019-04-12T02:11:20.675Z,0.00
2019-04-12T02:12:17.503Z,0.00
2019-04-12T02:13:28.158Z,0.00
2019-04-12T02:14:31.339Z,0.00
2019-04-12T02:15:39.128Z,0.00
2019-04-12T02:16:40.583Z,0.00
2019-04-12T02:17:54.203Z,0.00
2019-04-12T02:18:58.001Z,0.00
2019-04-12T02:20:03.020Z,0.00
2019-04-12T02:21:12.347Z,0.00
2019-04-12T02:22:09.993Z,0.00
2019-04-12T02:23:19.224Z,0.00
2019-04-12T02:24:28.747Z,0.00
2019-04-12T02:25:28.344Z,0.00
2019-04-12T02:26:45.550Z,0.00
2019-04-12T02:27:47.404Z,0.00
2019-04-12T02:28:40.351Z,0.00
2019-04-12T02:29:52.025Z,0.00
2019-04-12T02:30:48.555Z,0.00
2019-04-12T02:32:01.054Z,0.00
2019-04-12T02:33:00.240Z,0.00
2019-04-12T02:34:21.351Z,0.00
2019-04-12T02:35:28.104Z,0.00
2019-04-12T02:36:28.019Z,0.00
2019-04-12T02:37:22.491Z,0.00
2019-04-12T02:38:36.214Z,0.00
2019-04-12T02:39:36.226Z,0.00
2019-04-12T02:40:43.407Z,0.00
2019-04-12T02:41:58.156Z,0.00
2019-04-12T02:42:54.984Z,0.00
2019-04-12T02:43:58.985Z,0.00
2019-04-12T02:45:18.137Z,0.00
2019-04-12T02:46:15.484Z,0.00
2019-04-12T02:47:17.741Z,0.00
2019-04-12T02:48:21.542Z,0.00
2019-04-12T02:49:26.463Z,0.00
2019-04-12T02:50:31.801Z,0.00
2019-04-12T02:51:36.610Z,0.00
2019-04-12T02:52:42.355Z,0.00
2019-04-12T02:53:43.280Z,0.00
2019-04-12T02:54:56.197Z,0.00
2019-04-12T02:56:10.739Z,0.00
2019-04-12T02:57:05.424Z,0.00
2019-04-12T02:58:10.654Z,0.00
2019-04-12T02:59:16.086Z,0.00
2019-04-12T03:00:29.812Z,0.00
2019-04-12T03:01:25.109Z,0.00
2019-04-12T03:02:45.814Z,0.00
2019-04-12T03:03:37.414Z,0.00
2019-04-12T03:04:46.022Z,0.00
2019-04-12T03:05:47.979Z,0.00
2019-04-12T03:06:55.557Z,0.00
2019-04-12T03:07:58.741Z,0.00
2019-04-12T03:09:00.488Z,0.00
2019-04-12T03:10:08.073Z,0.00
2019-04-12T03:11:16.782Z,0.00
2019-04-12T03:12:44.127Z,0.00
2019-04-12T03:13:31.541Z,0.00
2019-04-12T03:14:38.305Z,0.00
2019-04-12T03:15:38.926Z,0.00
2019-04-12T03:16:40.264Z,0.00
2019-04-12T03:17:49.486Z,0.00
2019-04-12T03:19:01.591Z,0.00
2019-04-12T03:20:10.194Z,0.00
2019-04-12T03:21:10.811Z,0.00
2019-04-12T03:22:11.533Z,0.00
2019-04-12T03:23:18.499Z,0.00
2019-04-12T03:24:26.799Z,0.00
2019-04-12T03:25:29.065Z,0.00
2019-04-12T03:26:40.878Z,0.00
2019-04-12T03:27:34.299Z,0.00
2019-04-12T03:28:52.434Z,0.00
2019-04-12T03:29:55.510Z,0.00
2019-04-12T03:30:52.054Z,0.00
2019-04-12T03:32:08.543Z,0.00
2019-04-12T03:33:10.491Z,0.00
2019-04-12T03:34:17.452Z,0.00
2019-04-12T03:35:17.779Z,0.00
2019-04-12T03:36:26.479Z,0.00
2019-04-12T03:37:34.367Z,0.00
2019-04-12T03:38:39.292Z,0.00
2019-04-12T03:39:40.012Z,0.00
2019-04-12T03:40:49.441Z,0.00
2019-04-12T03:41:55.901Z,0.00
2019-04-12T03:42:58.159Z,0.00
2019-04-12T03:44:00.928Z,0.00
2019-04-12T03:45:10.977Z,0.00
2019-04-12T03:46:16.814Z,0.00
2019-04-12T03:47:12.728Z,0.00
2019-04-12T03:48:27.691Z,0.00
2019-04-12T03:49:31.374Z,0.00
2019-04-12T03:50:32.204Z,0.00
2019-04-12T03:51:38.767Z,0.00
2019-04-12T03:52:51.572Z,0.00
2019-04-12T03:54:01.511Z,0.00
2019-04-12T03:54:59.474Z,0.00
2019-04-12T03:56:08.098Z,0.00
2019-04-12T03:57:08.598Z,0.00
2019-04-12T03:58:18.231Z,0.00
2019-04-12T03:59:20.113Z,0.00
2019-04-12T04:00:26.026Z,0.00
2019-04-12T04:01:28.797Z,0.00
2019-04-12T04:02:35.561Z,0.00
2019-04-12T04:03:45.298Z,0.00
2019-04-12T04:04:52.072Z,0.00
2019-04-12T04:05:56.475Z,0.00
2019-04-12T04:07:00.679Z,0.00
2019-04-12T04:08:01.795Z,0.00
2019-04-12T04:09:07.873Z,0.00
2019-04-12T04:10:12.782Z,0.00
2019-04-12T04:11:18.315Z,0.00
2019-04-12T04:12:31.229Z,0.00
2019-04-12T04:13:27.550Z,0.00
2019-04-12T04:14:40.792Z,0.00
2019-04-12T04:15:54.186Z,0.00
2019-04-12T04:16:55.220Z,0.00
2019-04-12T04:17:56.055Z,0.00
2019-04-12T04:19:06.906Z,0.00
2019-04-12T04:20:02.409Z,0.00
2019-04-12T04:21:14.804Z,0.00
2019-04-12T04:22:12.784Z,0.00
2019-04-12T04:23:22.807Z,0.00
2019-04-12T04:24:28.544Z,0.00
2019-04-12T04:25:29.941Z,0.00
2019-04-12T04:26:37.979Z,0.00
2019-04-12T04:27:44.846Z,0.00
2019-04-12T04:28:56.638Z,0.00
2019-04-12T04:29:55.930Z,0.00
2019-04-12T04:30:58.389Z,0.00
2019-04-12T04:32:05.872Z,0.00
2019-04-12T04:33:12.129Z,0.00
2019-04-12T04:34:17.757Z,0.00
2019-04-12T04:35:17.358Z,0.00
2019-04-12T04:36:32.221Z,0.00
2019-04-12T04:37:31.227Z,0.00
2019-04-12T04:38:38.883Z,0.00
2019-04-12T04:39:43.196Z,0.00
2019-04-12T04:40:50.779Z,0.00
2019-04-12T04:41:51.713Z,0.00
2019-04-12T04:43:02.258Z,0.00
2019-04-12T04:44:04.929Z,0.00
2019-04-12T04:45:09.651Z,0.00
2019-04-12T04:46:32.588Z,0.00
2019-04-12T04:47:18.271Z,0.00
2019-04-12T04:48:25.433Z,0.00
2019-04-12T04:49:35.476Z,0.00
2019-04-12T04:50:47.157Z,0.00
2019-04-12T04:51:46.446Z,0.00
2019-04-12T04:52:54.233Z,0.00
2019-04-12T04:53:56.398Z,0.00
2019-04-12T04:55:06.339Z,0.00
2019-04-12T04:56:15.961Z,0.00
2019-04-12T04:57:13.932Z,0.00
2019-04-12T04:58:19.055Z,0.00
2019-04-12T04:59:25.108Z,0.00
2019-04-12T05:00:33.613Z,0.00
2019-04-12T05:01:32.696Z,0.00
2019-04-12T05:02:41.809Z,0.00
2019-04-12T05:03:41.110Z,0.00
2019-04-12T05:04:47.046Z,0.00
2019-04-12T05:06:01.595Z,0.00
2019-04-12T05:06:59.963Z,0.00
2019-04-12T05:08:13.597Z,0.00
2019-04-12T05:09:24.146Z,0.00
2019-04-12T05:10:15.252Z,0.00
2019-04-12T05:11:24.566Z,0.00
2019-04-12T05:12:27.029Z,0.00
2019-04-12T05:13:41.275Z,0.00
2019-04-12T05:14:37.185Z,0.00
2019-04-12T05:15:50.403Z,0.00
2019-04-12T05:17:03.209Z,0.00
2019-04-12T05:17:59.223Z,0.00
2019-04-12T05:19:24.010Z,0.00
2019-04-12T05:20:11.003Z,0.00
2019-04-12T05:21:14.394Z,0.00
2019-04-12T05:22:19.726Z,0.00
2019-04-12T05:23:19.733Z,0.00
2019-04-12T05:24:34.179Z,0.00
2019-04-12T05:25:29.789Z,0.00
2019-04-12T05:26:46.683Z,0.00
2019-04-12T05:27:47.924Z,0.00
2019-04-12T05:29:00.524Z,0.00
2019-04-12T05:29:56.229Z,0.00
2019-04-12T05:30:59.102Z,0.00
2019-04-12T05:32:04.334Z,0.00
2019-04-12T05:33:22.159Z,0.00
2019-04-12T05:34:20.333Z,5.63
2019-04-12T05:35:24.014Z,5.63
2019-04-12T05:36:30.472Z,5.63
2019-04-12T05:37:42.257Z,5.63
2019-04-12T05:38:46.769Z,5.63
2019-04-12T05:39:47.493Z,5.63
2019-04-12T05:40:56.918Z,5.63
2019-04-12T05:41:52.933Z,5.63
2019-04-12T05:43:02.054Z,5.63
2019-04-12T05:44:08.416Z,5.63
2019-04-12T05:45:08.006Z,5.63
2019-04-12T05:46:15.179Z,5.63
2019-04-12T05:47:20.715Z,5.63
2019-04-12T05:48:26.562Z,5.63
2019-04-12T05:49:34.964Z,5.63
2019-04-12T05:50:48.692Z,5.63
2019-04-12T05:51:45.322Z,5.63
2019-04-12T05:52:56.078Z,5.63
2019-04-12T05:54:03.002Z,5.63
2019-04-12T05:55:06.760Z,5.63
2019-04-12T05:56:04.193Z,5.63
2019-04-12T05:57:08.193Z,5.63
2019-04-12T05:58:19.973Z,5.63
2019-04-12T05:59:26.329Z,5.63
2019-04-12T06:00:32.379Z,5.63
2019-04-12T06:01:30.849Z,5.63
2019-04-12T06:02:42.224Z,5.63
2019-04-12T06:03:46.940Z,5.63
2019-04-12T06:04:49.304Z,5.63
2019-04-12T06:06:01.549Z,5.63
2019-04-12T06:07:01.916Z,5.63
2019-04-12T06:08:05.093Z,11.25
2019-04-12T06:09:14.825Z,11.25
2019-04-12T06:10:16.777Z,11.25
2019-04-12T06:11:22.734Z,11.25
2019-04-12T06:12:39.218Z,11.25
2019-04-12T06:13:34.310Z,11.25
2019-04-12T06:14:36.262Z,11.25
2019-04-12T06:15:49.787Z,11.25
2019-04-12T06:17:00.849Z,11.25
2019-04-12T06:18:03.468Z,11.25
2019-04-12T06:19:04.354Z,11.25
2019-04-12T06:20:09.064Z,11.25
2019-04-12T06:21:10.506Z,11.25
2019-04-12T06:22:14.611Z,11.25
2019-04-12T06:23:23.114Z,11.25
2019-04-12T06:24:36.029Z,11.25
2019-04-12T06:25:35.219Z,11.25
2019-04-12T06:26:45.975Z,11.25
2019-04-12T06:27:43.724Z,11.25
2019-04-12T06:28:51.726Z,11.25
2019-04-12T06:30:01.923Z,11.25
2019-04-12T06:31:06.590Z,16.88
2019-04-12T06:32:11.714Z,16.88
2019-04-12T06:33:16.732Z,16.88
2019-04-12T06:34:27.699Z,16.88
2019-04-12T06:35:25.451Z,16.88
2019-04-12T06:36:36.520Z,16.88
2019-04-12T06:37:33.564Z,16.88
2019-04-12T06:38:46.011Z,16.88
2019-04-12T06:39:45.658Z,16.88
2019-04-12T06:40:57.236Z,16.88
2019-04-12T06:41:58.975Z,16.88
2019-04-12T06:43:02.058Z,16.88
2019-04-12T06:44:10.867Z,16.88
2019-04-12T06:45:21.427Z,16.88
2019-04-12T06:46:32.902Z,16.88
2019-04-12T06:47:39.765Z,16.88
2019-04-12T06:48:26.669Z,16.88
2019-04-12T06:49:35.785Z,16.88
2019-04-12T06:50:41.729Z,22.50
2019-04-12T06:51:46.857Z,22.50
2019-04-12T06:52:59.872Z,22.50
2019-04-12T06:54:00.386Z,22.50
2019-04-12T06:55:01.624Z,22.50
2019-04-12T06:56:05.730Z,22.50
2019-04-12T06:57:22.559Z,22.50
2019-04-12T06:58:17.518Z,22.50
2019-04-12T06:59:29.207Z,22.50
2019-04-12T07:00:32.386Z,22.50
2019-04-12T07:01:42.422Z,22.50
2019-04-12T07:02:44.072Z,22.50
2019-04-12T07:03:56.057Z,22.50
2019-04-12T07:04:57.084Z,22.50
2019-04-12T07:05:58.323Z,22.50
2019-04-12T07:07:05.812Z,28.13
2019-04-12T07:08:11.682Z,28.13
2019-04-12T07:09:25.886Z,28.13
2019-04-12T07:10:22.725Z,28.13
2019-04-12T07:11:34.618Z,28.13
2019-04-12T07:12:34.825Z,28.13
2019-04-12T07:13:46.396Z,28.13
2019-04-12T07:14:44.560Z,28.13
2019-04-12T07:15:49.583Z,28.13
2019-04-12T07:16:58.909Z,28.13
2019-04-12T07:18:02.910Z,28.13
2019-04-12T07:19:05.375Z,28.13
2019-04-12T07:20:23.507Z,28.13
2019-04-12T07:21:16.345Z,28.13
2019-04-12T07:22:24.034Z,28.13
2019-04-12T07:23:30.090Z,28.13
2019-04-12T07:24:44.936Z,28.13
2019-04-12T07:25:44.021Z,28.13
2019-04-12T07:26:45.769Z,28.13
2019-04-12T07:28:01.239Z,28.13
2019-04-12T07:28:58.682Z,28.13
2019-04-12T07:30:01.762Z,28.13
2019-04-12T07:31:17.745Z,28.13
2019-04-12T07:32:17.547Z,28.13
2019-04-12T07:33:24.729Z,28.13
2019-04-12T07:34:23.502Z,28.13
2019-04-12T07:35:30.672Z,28.13
2019-04-12T07:36:36.318Z,28.13
2019-04-12T07:37:44.618Z,28.13
2019-04-12T07:38:46.259Z,28.13
2019-04-12T07:39:52.510Z,28.13
2019-04-12T07:40:59.178Z,33.75
2019-04-12T07:42:08.499Z,33.75
2019-04-12T07:43:14.548Z,33.75
2019-04-12T07:44:19.985Z,33.75
2019-04-12T07:45:20.507Z,33.75
2019-04-12T07:46:23.890Z,33.75
2019-04-12T07:47:33.010Z,33.75
2019-04-12T07:48:42.140Z,33.75
2019-04-12T07:49:49.099Z,33.75
2019-04-12T07:50:53.716Z,33.75
2019-04-12T07:51:51.065Z,33.75
2019-04-12T07:53:01.716Z,33.75
2019-04-12T07:54:06.540Z,33.75
2019-04-12T07:55:17.805Z,39.38
2019-04-12T07:56:17.718Z,39.38
2019-04-12T07:57:33.384Z,39.38
2019-04-12T07:58:29.404Z,39.38
2019-04-12T07:59:40.674Z,39.38
2019-04-12T08:00:42.415Z,39.38
2019-04-12T08:01:57.558Z,39.38
2019-04-12T08:02:54.617Z,39.38
2019-04-12T08:04:02.405Z,39.38
2019-04-12T08:05:07.239Z,39.38
2019-04-12T08:06:13.483Z,39.38
2019-04-12T08:07:18.095Z,45.00
2019-04-12T08:08:23.515Z,50.63
2019-04-12T08:09:22.097Z,50.63
2019-04-12T08:10:31.944Z,56.25
2019-04-12T08:11:37.066Z,56.25
2019-04-12T08:12:43.525Z,56.25
2019-04-12T08:13:44.757Z,56.25
2019-04-12T08:14:50.822Z,50.63
2019-04-12T08:16:02.999Z,56.25
2019-04-12T08:17:07.006Z,56.25
2019-04-12T08:18:07.725Z,50.63
2019-04-12T08:19:14.589Z,50.63
2019-04-12T08:20:25.657Z,50.63
2019-04-12T08:21:24.540Z,50.63
2019-04-12T08:22:31.405Z,39.38
2019-04-12T08:23:36.330Z,39.38
2019-04-12T08:24:50.466Z,33.75
2019-04-12T08:25:51.301Z,28.13
2019-04-12T08:26:54.679Z,28.13
2019-04-12T08:27:58.390Z,22.50
2019-04-12T08:29:03.302Z,22.50
2019-04-12T08:30:19.584Z,22.50
2019-04-12T08:31:17.032Z,22.50
2019-04-12T08:32:24.304Z,28.13
2019-04-12T08:33:20.012Z,22.50
2019-04-12T08:34:36.917Z,16.88
2019-04-12T08:35:39.894Z,16.88
2019-04-12T08:36:43.178Z,11.25
2019-04-12T08:37:46.774Z,16.88
2019-04-12T08:38:59.788Z,11.25
2019-04-12T08:39:58.296Z,11.25
2019-04-12T08:41:00.613Z,11.25
2019-04-12T08:42:08.977Z,11.25
2019-04-12T08:43:20.592Z,11.25
2019-04-12T08:44:22.034Z,11.25
2019-04-12T08:45:27.674Z,11.25
2019-04-12T08:46:34.459Z,11.25
2019-04-12T08:47:34.458Z,11.25
2019-04-12T08:48:39.496Z,11.25
2019-04-12T08:49:55.247Z,16.88
2019-04-12T08:50:54.435Z,16.88
2019-04-12T08:51:52.721Z,16.88
2019-04-12T08:53:10.557Z,16.88
2019-04-12T08:54:08.103Z,16.88
2019-04-12T08:55:20.307Z,16.88
2019-04-12T08:56:26.031Z,16.88
2019-04-12T08:57:22.623Z,16.88
2019-04-12T08:58:35.393Z,16.88
2019-04-12T08:59:35.906Z,16.88
2019-04-12T09:00:41.040Z,16.88
2019-04-12T09:01:48.981Z,16.88
2019-04-12T09:02:58.762Z,16.88
2019-04-12T09:03:54.957Z,16.88
2019-04-12T09:05:01.217Z,16.88
2019-04-12T09:06:09.639Z,16.88
2019-04-12T09:07:14.259Z,16.88
2019-04-12T09:08:19.744Z,16.88
2019-04-12T09:09:29.271Z,16.88
2019-04-12T09:10:31.857Z,16.88
2019-04-12T09:11:34.509Z,16.88
2019-04-12T09:12:41.967Z,16.88
2019-04-12T09:13:47.918Z,16.88
2019-04-12T09:14:49.334Z,16.88
2019-04-12T09:16:00.572Z,16.88
2019-04-12T09:17:10.133Z,16.88
2019-04-12T09:18:17.344Z,16.88
2019-04-12T09:19:22.539Z,16.88
2019-04-12T09:20:29.025Z,16.88
2019-04-12T09:21:22.307Z,16.88
2019-04-12T09:22:31.134Z,16.88
2019-04-12T09:23:39.173Z,16.88
2019-04-12T09:24:40.024Z,16.88
2019-04-12T09:25:43.922Z,16.88
2019-04-12T09:26:52.020Z,16.88
2019-04-12T09:27:56.633Z,16.88
2019-04-12T09:29:12.921Z,16.88
2019-04-12T09:30:09.487Z,16.88
2019-04-12T09:31:16.821Z,16.88
2019-04-12T09:32:18.687Z,16.88
2019-04-12T09:33:22.414Z,16.88
2019-04-12T09:34:30.468Z,16.88
2019-04-12T09:35:40.678Z,16.88
2019-04-12T09:36:39.184Z,16.88
2019-04-12T09:37:48.099Z,16.88
2019-04-12T09:38:57.120Z,16.88
2019-04-12T09:39:58.354Z,16.88
2019-04-12T09:41:11.058Z,16.88
2019-04-12T09:42:15.373Z,16.88
2019-04-12T09:43:20.903Z,16.88
2019-04-12T09:44:22.447Z,22.50
2019-04-12T09:45:36.999Z,22.50
2019-04-12T09:46:34.929Z,28.13
2019-04-12T09:47:43.049Z,28.13
2019-04-12T09:48:46.238Z,33.75
2019-04-12T09:49:53.097Z,33.75
2019-04-12T09:50:54.849Z,28.13
2019-04-12T09:52:01.918Z,28.13
2019-04-12T09:53:14.834Z,28.13
2019-04-12T09:54:14.061Z,28.13
2019-04-12T09:55:20.374Z,33.75
2019-04-12T09:56:22.432Z,28.13
2019-04-12T09:57:27.454Z,28.13
2019-04-12T09:58:37.518Z,28.13
2019-04-12T09:59:37.396Z,33.75
2019-04-12T10:00:41.406Z,33.75
2019-04-12T10:01:55.128Z,33.75
2019-04-12T10:03:00.152Z,33.75
2019-04-12T10:04:02.617Z,33.75
2019-04-12T10:05:07.032Z,28.13
2019-04-12T10:06:18.296Z,28.13
2019-04-12T10:07:22.611Z,28.13
2019-04-12T10:08:26.956Z,28.13
2019-04-12T10:09:27.434Z,22.50
2019-04-12T10:10:43.107Z,16.88
2019-04-12T10:11:39.121Z,16.88
2019-04-12T10:12:48.650Z,16.88
2019-04-12T10:13:47.834Z,16.88
2019-04-12T10:15:00.540Z,16.88
2019-04-12T10:16:05.772Z,16.88
2019-04-12T10:17:14.993Z,16.88
2019-04-12T10:18:17.675Z,22.50
2019-04-12T10:19:21.358Z,28.13
2019-04-12T10:20:34.369Z,28.13
2019-04-12T10:21:35.807Z,33.75
2019-04-12T10:22:41.653Z,33.75
2019-04-12T10:23:45.354Z,33.75
2019-04-12T10:24:50.678Z,39.38
2019-04-12T10:25:50.174Z,39.38
2019-04-12T10:27:01.035Z,39.38
2019-04-12T10:28:13.330Z,39.38
2019-04-12T10:29:12.001Z,39.38
2019-04-12T10:30:14.057Z,45.00
2019-04-12T10:31:21.848Z,45.00
2019-04-12T10:32:26.870Z,45.00
2019-04-12T10:33:34.356Z,45.00
2019-04-12T10:34:34.671Z,45.00
2019-04-12T10:35:37.847Z,45.00
2019-04-12T10:36:55.672Z,45.00
2019-04-12T10:37:57.730Z,39.38
2019-04-12T10:39:05.933Z,33.75
2019-04-12T10:40:05.527Z,28.13
2019-04-12T10:41:11.470Z,28.13
2019-04-12T10:42:16.495Z,22.50
2019-04-12T10:43:24.493Z,22.50
2019-04-12T10:44:29.413Z,22.50
2019-04-12T10:45:31.263Z,22.50
2019-04-12T10:46:40.281Z,28.13
2019-04-12T10:47:53.701Z,28.13
2019-04-12T10:48:46.131Z,33.75
2019-04-12T10:49:56.582Z,33.75
2019-04-12T10:51:06.660Z,39.38
2019-04-12T10:52:06.231Z,45.00
2019-04-12T10:53:09.300Z,45.00
2019-04-12T10:54:21.189Z,45.00
2019-04-12T10:55:24.368Z,50.63
2019-04-12T10:56:22.634Z,50.63
2019-04-12T10:57:33.801Z,50.63
2019-04-12T10:58:39.751Z,50.63
2019-04-12T10:59:50.310Z,56.25
2019-04-12T11:00:46.215Z,56.25
2019-04-12T11:01:58.721Z,56.25
2019-04-12T11:02:59.948Z,56.25
2019-04-12T11:04:04.567Z,56.25
2019-04-12T11:05:14.504Z,56.25
2019-04-12T11:06:15.537Z,56.25
2019-04-12T11:07:23.019Z,56.25
2019-04-12T11:08:35.423Z,61.88
2019-04-12T11:09:42.392Z,56.25
2019-04-12T11:11:02.464Z,56.25
2019-04-12T11:11:53.254Z,56.25
2019-04-12T11:12:57.663Z,56.25
2019-04-12T11:14:09.244Z,56.25
2019-04-12T11:15:20.378Z,56.25
2019-04-12T11:16:21.436Z,56.25
2019-04-12T11:17:16.124Z,56.25
2019-04-12T11:18:30.465Z,56.25
2019-04-12T11:19:37.947Z,50.63
2019-04-12T11:20:37.032Z,50.63
2019-04-12T11:21:47.891Z,50.63
2019-04-12T11:22:46.883Z,45.00
2019-04-12T11:24:01.013Z,45.00
2019-04-12T11:25:23.050Z,45.00
2019-04-12T11:26:15.262Z,45.00
2019-04-12T11:27:11.482Z,45.00
2019-04-12T11:28:22.650Z,45.00
2019-04-12T11:29:22.759Z,45.00
2019-04-12T11:30:21.843Z,45.00
2019-04-12T11:31:45.506Z,45.00
2019-04-12T11:32:33.738Z,45.00
2019-04-12T11:34:06.508Z,50.63
2019-04-12T11:35:17.369Z,50.63
2019-04-12T11:36:15.637Z,50.63
2019-04-12T11:37:02.330Z,50.63
2019-04-12T11:38:08.277Z,56.25
2019-04-12T11:39:16.278Z,56.25
2019-04-12T11:40:36.247Z,56.25
2019-04-12T11:41:35.127Z,56.25
2019-04-12T11:43:06.064Z,56.25
2019-04-12T11:44:17.027Z,56.25
2019-04-12T11:45:14.066Z,56.25
2019-04-12T11:46:36.405Z,56.25
2019-04-12T11:47:21.052Z,56.25
2019-04-12T11:48:37.224Z,50.63
2019-04-12T11:49:20.865Z,50.63
2019-04-12T11:50:30.886Z,50.63
2019-04-12T11:51:20.657Z,50.63
2019-04-12T11:52:52.716Z,50.63
2019-04-12T11:53:37.668Z,50.63
2019-04-12T11:54:57.642Z,50.63
2019-04-12T11:55:55.702Z,50.63
2019-04-12T11:57:22.655Z,50.63
2019-04-12T11:58:41.191Z,56.25
2019-04-12T11:58:50.604Z,56.25
2019-04-12T12:00:43.248Z,56.25
2019-04-12T12:01:39.052Z,56.25
2019-04-12T12:02:34.248Z,56.25
2019-04-12T12:03:45.220Z,56.25
2019-04-12T12:04:54.126Z,56.25
2019-04-12T12:06:10.118Z,61.88
2019-04-12T12:07:49.190Z,61.88
2019-04-12T12:08:57.952Z,61.88
2019-04-12T12:09:41.980Z,61.88
2019-04-12T12:11:15.671Z,61.88
2019-04-12T12:12:07.900Z,67.50
2019-04-12T12:13:24.810Z,67.50
2019-04-12T12:14:39.970Z,67.50
2019-04-12T12:16:00.656Z,67.50
2019-04-12T12:16:38.746Z,67.50
2019-04-12T12:17:57.598Z,61.88
2019-04-12T12:19:55.373Z,61.88
2019-04-12T12:20:42.571Z,67.50
2019-04-12T12:21:44.831Z,67.50
2019-04-12T12:23:31.323Z,67.50
2019-04-12T12:25:09.318Z,67.50
2019-04-12T12:26:09.227Z,73.13
2019-04-12T12:26:33.406Z,73.13
2019-04-12T12:28:19.988Z,73.13
2019-04-12T12:29:41.738Z,73.13
2019-04-12T12:30:40.387Z,73.13
2019-04-12T12:31:38.339Z,73.13
2019-04-12T12:33:26.788Z,67.50
2019-04-12T12:34:20.129Z,78.75
2019-04-12T12:35:33.889Z,67.50
2019-04-12T12:36:29.064Z,61.88
2019-04-12T12:37:24.760Z,67.50
2019-04-12T12:38:20.877Z,73.13
2019-04-12T12:39:39.010Z,78.75
2019-04-12T12:40:58.067Z,78.75
2019-04-12T12:42:02.468Z,90.00
2019-04-12T12:42:36.672Z,84.38
2019-04-12T12:43:48.454Z,90.00
2019-04-12T12:45:30.651Z,95.63
2019-04-12T12:46:15.607Z,90.00
2019-04-12T12:47:29.948Z,95.63
2019-04-12T12:48:24.324Z,95.63
2019-04-12T12:49:51.173Z,90.00
2019-04-12T12:50:20.754Z,84.38
2019-04-12T12:52:04.286Z,84.38
2019-04-12T12:52:48.209Z,84.38
2019-04-12T12:53:45.967Z,84.38
2019-04-12T12:54:47.303Z,78.75
2019-04-12T12:55:45.671Z,90.00
2019-04-12T12:57:16.707Z,84.38
2019-04-12T12:58:20.202Z,84.38
2019-04-12T12:59:12.008Z,84.38
2019-04-12T13:00:19.080Z,84.38
2019-04-12T13:01:33.329Z,90.00
2019-04-12T13:02:30.976Z,90.00
2019-04-12T13:03:40.510Z,90.00
2019-04-12T13:04:58.742Z,84.38
2019-04-12T13:06:07.651Z,78.75
2019-04-12T13:06:49.741Z,73.13
2019-04-12T13:08:08.486Z,73.13
2019-04-12T13:09:03.885Z,73.13
2019-04-12T13:10:04.101Z,73.13
2019-04-12T13:11:14.652Z,73.13
2019-04-12T13:12:16.603Z,78.75
2019-04-12T13:13:26.029Z,78.75
2019-04-12T13:14:40.492Z,84.38
2019-04-12T13:15:30.854Z,78.75
2019-04-12T13:16:33.628Z,78.75
2019-04-12T13:17:37.938Z,78.75
2019-04-12T13:18:51.563Z,78.75
2019-04-12T13:20:04.778Z,78.75
2019-04-12T13:20:59.983Z,78.75
2019-04-12T13:22:12.573Z,78.75
2019-04-12T13:23:13.413Z,78.75
2019-04-12T13:24:30.208Z,73.13
2019-04-12T13:25:34.407Z,73.13
2019-04-12T13:26:28.372Z,67.50
2019-04-12T13:27:28.380Z,61.88
2019-04-12T13:28:45.793Z,56.25
2019-04-12T13:29:52.562Z,50.63
2019-04-12T13:30:59.122Z,50.63
2019-04-12T13:32:00.467Z,50.63
2019-04-12T13:33:02.104Z,56.25
2019-04-12T13:34:17.988Z,61.88
2019-04-12T13:35:18.194Z,67.50
2019-04-12T13:36:23.546Z,67.50
2019-04-12T13:37:22.626Z,73.13
2019-04-12T13:38:28.866Z,84.38
2019-04-12T13:39:40.040Z,90.00
2019-04-12T13:40:43.839Z,78.75
2019-04-12T13:41:49.774Z,73.13
2019-04-12T13:42:48.654Z,73.13
2019-04-12T13:43:54.606Z,73.13
2019-04-12T13:45:05.885Z,73.13
2019-04-12T13:46:11.923Z,73.13
2019-04-12T13:47:28.416Z,73.13
2019-04-12T13:48:34.363Z,73.13
2019-04-12T13:49:23.929Z,67.50
2019-04-12T13:50:44.411Z,61.88
2019-04-12T13:51:40.425Z,61.88
2019-04-12T13:52:41.249Z,61.88
2019-04-12T13:54:01.337Z,56.25
2019-04-12T13:54:59.295Z,56.25
2019-04-12T13:56:07.996Z,56.25
2019-04-12T13:56:54.588Z,61.88
2019-04-12T13:58:12.521Z,61.88
2019-04-12T13:59:22.463Z,73.13
2019-04-12T14:00:22.059Z,73.13
2019-04-12T14:01:30.974Z,73.13
2019-04-12T14:02:38.348Z,67.50
2019-04-12T14:03:39.889Z,56.25
2019-04-12T14:04:32.424Z,50.63
2019-04-12T14:05:45.435Z,45.00
2019-04-12T14:06:48.411Z,33.75
2019-04-12T14:08:01.944Z,28.13
2019-04-12T14:08:59.073Z,33.75
2019-04-12T14:10:16.419Z,33.75
2019-04-12T14:11:03.901Z,33.75
2019-04-12T14:12:22.239Z,28.13
2019-04-12T14:13:21.221Z,28.13
2019-04-12T14:14:29.726Z,28.13
2019-04-12T14:15:38.847Z,28.13
2019-04-12T14:16:47.871Z,28.13
2019-04-12T14:17:56.681Z,33.75
2019-04-12T14:18:59.555Z,33.75